Middlesex, Vermont
Current Conditions -  °F | °C
As of 8:51 AM on Saturday 20 Dec 2014 (Local Time) from KMPV Reporting Station
Clear Clear  
Wind Chill: 10°   Ceiling: Unl
Heat Index: 10°   Visibility: 7mi
Dew Point:   Wind: 0mph
Humidity: 95%   Direction: NA
Pressure: 30.31"   Gusts: NA
Location:  44.2861°N, 72.6004°W
Report Text: KMPV 201351Z AUTO 00000KT 7SM CLR M12/M13 A3031 RMK AO2 SLP290 T11221128
Loading
Personal Weather Stations






























Interactive Weather Map New forecast layout! Learn more

10-Day Weather Forecast

Advertisements
Track Severe Weather on mobile